Bootsie B, — WDF9484 — position and weather

sailwx.info

Track history (hours):
 
Tides and Currents Weather Stations Pressure Air Temp Water Temp Dewpoint Dewpoint Depression Visibility Wind Speed Wind Dir Waves Ship Positions

Bootsie B,

Owner: Marquette Transp[ortation Co. LLC, Paducah, KY. More information available from US FCC via Universal Licensing System and Coast Guard Vessel Documentation Center.

Last reported at 2017-Mar-22 05:21 UTC. Time now 2017-Mar-26 03:35 UTC.
Position N 30°03' W 090°34'.

; draft 3.2 m.

Type: Towing. MMSI: 367505630.

Date/timePositionNaut miles runAvg speedWind from/ knotsBaromVisibWave heightAir tempDewpointWater temp
2017-Mar-22 05:21N 30°03' W 090°34'  
2017-Mar-19 11:18N 31°47' W 091°22'6 7.9
2017-Mar-19 10:32N 31°51' W 091°16'9 9.6
2017-Mar-19 09:33N 31°59' W 091°10'8 7.6
2017-Mar-19 08:33N 32°05' W 091°05'3 3.4
2017-Mar-19 07:33N 32°07' W 091°02'9 9.1
2017-Mar-19 06:33N 32°16' W 090°58'5 5.3
2017-Mar-19 05:33N 32°21' W 090°59'8 8.4
2017-Mar-19 04:33N 32°27' W 091°06'9 9.3
2017-Mar-19 03:33N 32°36' W 091°09'  
Track history (hours):
 
Tides and Currents Weather Stations Pressure Air Temp Water Temp Dewpoint Dewpoint Depression Visibility Wind Speed Wind Dir Waves Ship Positions

Bootsie B,

Owner: Marquette Transp[ortation Co. LLC, Paducah, KY. More information available from US FCC via Universal Licensing System and Coast Guard Vessel Documentation Center.

Last reported at 2017-Mar-22 05:21 UTC. Time now 2017-Mar-26 03:35 UTC.
Position N 30°03' W 090°34'.

; draft 3.2 m.

Type: Towing. MMSI: 367505630.

Date/timePositionNaut miles runAvg speedWind from/ knotsBaromVisibWave heightAir tempDewpointWater temp
2017-Mar-22 05:21N 30°03' W 090°34'  
2017-Mar-19 11:18N 31°47' W 091°22'6 7.9
2017-Mar-19 10:32N 31°51' W 091°16'9 9.6
2017-Mar-19 09:33N 31°59' W 091°10'8 7.6
2017-Mar-19 08:33N 32°05' W 091°05'3 3.4
2017-Mar-19 07:33N 32°07' W 091°02'9 9.1
2017-Mar-19 06:33N 32°16' W 090°58'5 5.3
2017-Mar-19 05:33N 32°21' W 090°59'8 8.4
2017-Mar-19 04:33N 32°27' W 091°06'9 9.3
2017-Mar-19 03:33N 32°36' W 091°09'  

Dump ship's entire track history